sensor_id;sensor_type;location;lat;lon;timestamp;temperature;humidity
6252;DHT22;3159;52.414;9.784;2023-01-19T00:00:38;1.10;99.90
6252;DHT22;3159;52.414;9.784;2023-01-19T00:03:05;1.00;99.90
6252;DHT22;3159;52.414;9.784;2023-01-19T00:05:40;1.00;99.90
6252;DHT22;3159;52.414;9.784;2023-01-19T00:08:07;1.00;99.90
6252;DHT22;3159;52.414;9.784;2023-01-19T00:10:40;1.00;99.90
6252;DHT22;3159;52.414;9.784;2023-01-19T00:13:07;1.00;99.90
6252;DHT22;3159;52.414;9.784;2023-01-19T00:15:34;1.00;99.90
6252;DHT22;3159;52.414;9.784;2023-01-19T00:18:02;0.90;99.90
6252;DHT22;3159;52.414;9.784;2023-01-19T00:20:29;1.00;99.90
6252;DHT22;3159;52.414;9.784;2023-01-19T00:22:57;1.00;99.90
6252;DHT22;3159;52.414;9.784;2023-01-19T00:25:24;1.00;99.90
6252;DHT22;3159;52.414;9.784;2023-01-19T00:27:51;0.90;99.90
6252;DHT22;3159;52.414;9.784;2023-01-19T00:30:17;1.00;99.90
6252;DHT22;3159;52.414;9.784;2023-01-19T00:32:44;1.00;99.90
6252;DHT22;3159;52.414;9.784;2023-01-19T00:35:12;1.10;99.90
6252;DHT22;3159;52.414;9.784;2023-01-19T00:37:41;1.10;99.90
6252;DHT22;3159;52.414;9.784;2023-01-19T00:40:11;1.20;99.90
6252;DHT22;3159;52.414;9.784;2023-01-19T00:42:38;1.20;99.90
6252;DHT22;3159;52.414;9.784;2023-01-19T00:45:11;1.10;99.90
6252;DHT22;3159;52.414;9.784;2023-01-19T00:47:38;1.20;99.90
6252;DHT22;3159;52.414;9.784;2023-01-19T00:50:05;1.10;99.90
6252;DHT22;3159;52.414;9.784;2023-01-19T00:52:34;1.20;99.90
6252;DHT22;3159;52.414;9.784;2023-01-19T00:55:00;1.10;99.90
6252;DHT22;3159;52.414;9.784;2023-01-19T00:57:27;1.10;99.90
6252;DHT22;3159;52.414;9.784;2023-01-19T00:59:55;1.10;99.90
6252;DHT22;3159;52.414;9.784;2023-01-19T01:02:21;1.20;99.90
6252;DHT22;3159;52.414;9.784;2023-01-19T01:04:48;1.20;99.90
6252;DHT22;3159;52.414;9.784;2023-01-19T01:07:19;1.30;99.90
6252;DHT22;3159;52.414;9.784;2023-01-19T01:09:47;1.30;99.90
6252;DHT22;3159;52.414;9.784;2023-01-19T01:12:14;1.30;99.90
6252;DHT22;3159;52.414;9.784;2023-01-19T01:14:41;1.30;99.90
6252;DHT22;3159;52.414;9.784;2023-01-19T01:17:08;1.30;99.90
6252;DHT22;3159;52.414;9.784;2023-01-19T01:19:36;1.30;99.90
6252;DHT22;3159;52.414;9.784;2023-01-19T01:22:03;1.20;99.90
6252;DHT22;3159;52.414;9.784;2023-01-19T01:24:30;1.20;99.90
6252;DHT22;3159;52.414;9.784;2023-01-19T01:26:58;1.20;99.90
6252;DHT22;3159;52.414;9.784;2023-01-19T01:29:25;1.20;99.90
6252;DHT22;3159;52.414;9.784;2023-01-19T01:31:52;1.20;99.90
6252;DHT22;3159;52.414;9.784;2023-01-19T01:34:19;1.20;99.90
6252;DHT22;3159;52.414;9.784;2023-01-19T01:36:45;1.20;99.90
6252;DHT22;3159;52.414;9.784;2023-01-19T01:39:12;1.30;99.90
6252;DHT22;3159;52.414;9.784;2023-01-19T01:41:39;1.30;99.90
6252;DHT22;3159;52.414;9.784;2023-01-19T01:47:20;1.30;99.90
6252;DHT22;3159;52.414;9.784;2023-01-19T01:49:50;1.20;99.90
6252;DHT22;3159;52.414;9.784;2023-01-19T01:52:18;1.20;99.90
6252;DHT22;3159;52.414;9.784;2023-01-19T01:54:45;1.20;99.90
6252;DHT22;3159;52.414;9.784;2023-01-19T01:57:12;1.20;99.90
6252;DHT22;3159;52.414;9.784;2023-01-19T01:59:42;1.20;99.90
6252;DHT22;3159;52.414;9.784;2023-01-19T02:02:13;1.20;99.90
6252;DHT22;3159;52.414;9.784;2023-01-19T02:05:01;1.30;99.90
6252;DHT22;3159;52.414;9.784;2023-01-19T02:07:36;1.30;99.90
6252;DHT22;3159;52.414;9.784;2023-01-19T02:10:22;1.30;99.90
6252;DHT22;3159;52.414;9.784;2023-01-19T02:13:06;1.30;99.90
6252;DHT22;3159;52.414;9.784;2023-01-19T02:15:46;1.30;99.90
6252;DHT22;3159;52.414;9.784;2023-01-19T02:18:14;1.30;99.90
6252;DHT22;3159;52.414;9.784;2023-01-19T02:20:49;1.30;99.90
6252;DHT22;3159;52.414;9.784;2023-01-19T02:23:26;1.30;99.90
6252;DHT22;3159;52.414;9.784;2023-01-19T02:25:56;1.30;99.90
6252;DHT22;3159;52.414;9.784;2023-01-19T02:28:24;1.30;99.90
6252;DHT22;3159;52.414;9.784;2023-01-19T02:30:52;1.30;99.90
6252;DHT22;3159;52.414;9.784;2023-01-19T02:33:19;1.30;99.90
6252;DHT22;3159;52.414;9.784;2023-01-19T02:35:46;1.30;99.90
6252;DHT22;3159;52.414;9.784;2023-01-19T02:38:14;1.30;99.90
6252;DHT22;3159;52.414;9.784;2023-01-19T02:40:45;1.30;99.90
6252;DHT22;3159;52.414;9.784;2023-01-19T02:43:12;1.40;99.90
6252;DHT22;3159;52.414;9.784;2023-01-19T02:45:41;1.30;99.90
6252;DHT22;3159;52.414;9.784;2023-01-19T02:48:08;1.30;99.90
6252;DHT22;3159;52.414;9.784;2023-01-19T02:50:41;1.30;99.90
6252;DHT22;3159;52.414;9.784;2023-01-19T02:56:38;1.30;99.90
6252;DHT22;3159;52.414;9.784;2023-01-19T02:59:14;1.30;99.90
6252;DHT22;3159;52.414;9.784;2023-01-19T03:02:05;1.30;99.90
6252;DHT22;3159;52.414;9.784;2023-01-19T03:04:52;1.30;99.90
6252;DHT22;3159;52.414;9.784;2023-01-19T03:07:29;1.30;99.90
6252;DHT22;3159;52.414;9.784;2023-01-19T03:10:04;1.40;99.90
6252;DHT22;3159;52.414;9.784;2023-01-19T03:12:39;1.40;99.90
6252;DHT22;3159;52.414;9.784;2023-01-19T03:15:14;1.20;99.90
6252;DHT22;3159;52.414;9.784;2023-01-19T03:17:44;1.30;99.90
6252;DHT22;3159;52.414;9.784;2023-01-19T03:20:15;1.30;99.90
6252;DHT22;3159;52.414;9.784;2023-01-19T03:22:44;1.30;99.90
6252;DHT22;3159;52.414;9.784;2023-01-19T03:25:14;1.40;99.90
6252;DHT22;3159;52.414;9.784;2023-01-19T03:27:45;1.50;99.90
6252;DHT22;3159;52.414;9.784;2023-01-19T03:30:16;1.50;99.90
6252;DHT22;3159;52.414;9.784;2023-01-19T03:32:48;1.50;99.90
6252;DHT22;3159;52.414;9.784;2023-01-19T03:35:19;1.50;99.90
6252;DHT22;3159;52.414;9.784;2023-01-19T03:37:47;1.50;99.90
6252;DHT22;3159;52.414;9.784;2023-01-19T03:40:16;1.40;99.90
6252;DHT22;3159;52.414;9.784;2023-01-19T03:42:44;1.40;99.90
6252;DHT22;3159;52.414;9.784;2023-01-19T03:45:13;1.50;99.90
6252;DHT22;3159;52.414;9.784;2023-01-19T03:47:40;1.60;99.90
6252;DHT22;3159;52.414;9.784;2023-01-19T03:50:11;1.60;99.90
6252;DHT22;3159;52.414;9.784;2023-01-19T03:52:39;1.60;99.90
6252;DHT22;3159;52.414;9.784;2023-01-19T03:55:06;1.70;99.90
6252;DHT22;3159;52.414;9.784;2023-01-19T03:57:34;1.70;99.90
6252;DHT22;3159;52.414;9.784;2023-01-19T04:00:04;1.70;99.90
6252;DHT22;3159;52.414;9.784;2023-01-19T04:02:30;1.70;99.90
6252;DHT22;3159;52.414;9.784;2023-01-19T04:04:57;1.70;99.90
6252;DHT22;3159;52.414;9.784;2023-01-19T04:07:24;1.70;99.90
6252;DHT22;3159;52.414;9.784;2023-01-19T04:09:51;1.80;99.90
6252;DHT22;3159;52.414;9.784;2023-01-19T04:12:18;1.80;99.90
6252;DHT22;3159;52.414;9.784;2023-01-19T04:14:45;1.80;99.90
6252;DHT22;3159;52.414;9.784;2023-01-19T04:17:13;1.90;99.90
6252;DHT22;3159;52.414;9.784;2023-01-19T04:19:40;1.90;99.90
6252;DHT22;3159;52.414;9.784;2023-01-19T04:22:07;1.90;99.90
6252;DHT22;3159;52.414;9.784;2023-01-19T04:24:34;1.90;99.90
6252;DHT22;3159;52.414;9.784;2023-01-19T04:27:01;1.90;99.90
6252;DHT22;3159;52.414;9.784;2023-01-19T04:29:28;1.90;99.90
6252;DHT22;3159;52.414;9.784;2023-01-19T04:31:55;1.90;99.90
6252;DHT22;3159;52.414;9.784;2023-01-19T04:34:23;1.90;99.90
6252;DHT22;3159;52.414;9.784;2023-01-19T04:36:50;1.90;99.90
6252;DHT22;3159;52.414;9.784;2023-01-19T04:39:17;1.80;99.90
6252;DHT22;3159;52.414;9.784;2023-01-19T04:41:43;1.90;99.90
6252;DHT22;3159;52.414;9.784;2023-01-19T04:44:10;1.90;99.90
6252;DHT22;3159;52.414;9.784;2023-01-19T04:46:37;1.90;99.90
6252;DHT22;3159;52.414;9.784;2023-01-19T04:49:04;2.00;99.90
6252;DHT22;3159;52.414;9.784;2023-01-19T04:51:32;2.00;99.90
6252;DHT22;3159;52.414;9.784;2023-01-19T04:53:59;2.00;99.90
6252;DHT22;3159;52.414;9.784;2023-01-19T04:56:26;2.00;99.90
6252;DHT22;3159;52.414;9.784;2023-01-19T04:58:53;2.00;99.90
6252;DHT22;3159;52.414;9.784;2023-01-19T05:01:20;2.10;99.90
6252;DHT22;3159;52.414;9.784;2023-01-19T05:03:47;2.10;99.90
6252;DHT22;3159;52.414;9.784;2023-01-19T05:06:13;2.10;99.90
6252;DHT22;3159;52.414;9.784;2023-01-19T05:08:41;2.10;99.90
6252;DHT22;3159;52.414;9.784;2023-01-19T05:11:08;2.10;99.90
6252;DHT22;3159;52.414;9.784;2023-01-19T05:13:35;2.10;99.90
6252;DHT22;3159;52.414;9.784;2023-01-19T05:16:02;2.10;99.90
6252;DHT22;3159;52.414;9.784;2023-01-19T05:18:29;2.10;99.90
6252;DHT22;3159;52.414;9.784;2023-01-19T05:21:00;2.10;99.90
6252;DHT22;3159;52.414;9.784;2023-01-19T05:23:27;2.10;99.90
6252;DHT22;3159;52.414;9.784;2023-01-19T05:25:57;2.10;99.90
6252;DHT22;3159;52.414;9.784;2023-01-19T05:28:25;2.20;99.90
6252;DHT22;3159;52.414;9.784;2023-01-19T05:30:52;2.20;99.90
6252;DHT22;3159;52.414;9.784;2023-01-19T05:33:19;2.20;99.90
6252;DHT22;3159;52.414;9.784;2023-01-19T05:35:46;2.10;99.90
6252;DHT22;3159;52.414;9.784;2023-01-19T05:38:14;2.10;99.90
6252;DHT22;3159;52.414;9.784;2023-01-19T05:40:41;2.10;99.90
6252;DHT22;3159;52.414;9.784;2023-01-19T05:43:10;2.20;99.90
6252;DHT22;3159;52.414;9.784;2023-01-19T05:45:36;2.10;99.90
6252;DHT22;3159;52.414;9.784;2023-01-19T05:48:03;2.20;99.90
6252;DHT22;3159;52.414;9.784;2023-01-19T05:50:30;2.20;99.90
6252;DHT22;3159;52.414;9.784;2023-01-19T05:52:57;2.30;99.90
6252;DHT22;3159;52.414;9.784;2023-01-19T05:55:24;2.40;99.90
6252;DHT22;3159;52.414;9.784;2023-01-19T05:57:51;2.30;99.90
6252;DHT22;3159;52.414;9.784;2023-01-19T06:00:20;2.20;99.90
6252;DHT22;3159;52.414;9.784;2023-01-19T06:02:47;2.20;99.90
6252;DHT22;3159;52.414;9.784;2023-01-19T06:05:14;2.20;99.90
6252;DHT22;3159;52.414;9.784;2023-01-19T06:07:41;2.20;99.90
6252;DHT22;3159;52.414;9.784;2023-01-19T06:10:09;2.20;99.90
6252;DHT22;3159;52.414;9.784;2023-01-19T06:12:38;2.20;99.90
6252;DHT22;3159;52.414;9.784;2023-01-19T06:15:06;2.20;99.90
6252;DHT22;3159;52.414;9.784;2023-01-19T06:17:34;2.20;99.90
6252;DHT22;3159;52.414;9.784;2023-01-19T06:20:01;2.30;99.90
6252;DHT22;3159;52.414;9.784;2023-01-19T06:22:28;2.40;99.90
6252;DHT22;3159;52.414;9.784;2023-01-19T06:24:54;2.30;99.90
6252;DHT22;3159;52.414;9.784;2023-01-19T06:27:21;2.20;99.90
6252;DHT22;3159;52.414;9.784;2023-01-19T06:29:48;2.30;99.90
6252;DHT22;3159;52.414;9.784;2023-01-19T06:32:15;2.30;99.90
6252;DHT22;3159;52.414;9.784;2023-01-19T06:34:43;2.40;99.90
6252;DHT22;3159;52.414;9.784;2023-01-19T06:37:11;2.40;99.90
6252;DHT22;3159;52.414;9.784;2023-01-19T06:39:37;2.40;99.90
6252;DHT22;3159;52.414;9.784;2023-01-19T06:42:05;2.40;99.90
6252;DHT22;3159;52.414;9.784;2023-01-19T06:44:32;2.50;99.90
6252;DHT22;3159;52.414;9.784;2023-01-19T06:46:59;2.40;99.90
6252;DHT22;3159;52.414;9.784;2023-01-19T06:49:26;2.40;99.90
6252;DHT22;3159;52.414;9.784;2023-01-19T06:51:54;2.40;99.90
6252;DHT22;3159;52.414;9.784;2023-01-19T06:54:21;2.40;99.90
6252;DHT22;3159;52.414;9.784;2023-01-19T06:56:47;2.30;99.90
6252;DHT22;3159;52.414;9.784;2023-01-19T06:59:14;2.40;99.90
6252;DHT22;3159;52.414;9.784;2023-01-19T07:01:41;2.40;99.90
6252;DHT22;3159;52.414;9.784;2023-01-19T07:04:08;2.40;99.90
6252;DHT22;3159;52.414;9.784;2023-01-19T07:06:38;2.30;99.90
6252;DHT22;3159;52.414;9.784;2023-01-19T07:09:07;2.40;99.90
6252;DHT22;3159;52.414;9.784;2023-01-19T07:11:36;2.40;99.90
6252;DHT22;3159;52.414;9.784;2023-01-19T07:14:03;2.40;99.90
6252;DHT22;3159;52.414;9.784;2023-01-19T07:16:30;2.40;99.90
6252;DHT22;3159;52.414;9.784;2023-01-19T07:18:57;2.40;99.90
6252;DHT22;3159;52.414;9.784;2023-01-19T07:21:24;2.50;99.90
6252;DHT22;3159;52.414;9.784;2023-01-19T07:23:51;2.40;99.90
6252;DHT22;3159;52.414;9.784;2023-01-19T07:26:20;2.50;99.90
6252;DHT22;3159;52.414;9.784;2023-01-19T07:28:49;2.50;99.90
6252;DHT22;3159;52.414;9.784;2023-01-19T07:31:16;2.40;99.90
6252;DHT22;3159;52.414;9.784;2023-01-19T07:33:43;2.40;99.90
6252;DHT22;3159;52.414;9.784;2023-01-19T07:36:10;2.40;99.90
6252;DHT22;3159;52.414;9.784;2023-01-19T07:38:38;2.50;99.90
6252;DHT22;3159;52.414;9.784;2023-01-19T07:41:06;2.50;99.90
6252;DHT22;3159;52.414;9.784;2023-01-19T07:43:34;2.50;99.90
6252;DHT22;3159;52.414;9.784;2023-01-19T07:46:04;2.50;99.90
6252;DHT22;3159;52.414;9.784;2023-01-19T07:48:31;2.40;99.90
6252;DHT22;3159;52.414;9.784;2023-01-19T07:51:01;2.40;99.90
6252;DHT22;3159;52.414;9.784;2023-01-19T07:53:29;2.40;99.90
6252;DHT22;3159;52.414;9.784;2023-01-19T07:55:57;2.50;99.90
6252;DHT22;3159;52.414;9.784;2023-01-19T07:58:23;2.50;99.90
6252;DHT22;3159;52.414;9.784;2023-01-19T08:00:52;2.50;99.90
6252;DHT22;3159;52.414;9.784;2023-01-19T08:03:19;2.50;99.90
6252;DHT22;3159;52.414;9.784;2023-01-19T08:05:49;2.60;99.90
6252;DHT22;3159;52.414;9.784;2023-01-19T08:08:17;2.40;99.90
6252;DHT22;3159;52.414;9.784;2023-01-19T08:10:43;2.50;99.90
6252;DHT22;3159;52.414;9.784;2023-01-19T08:13:10;2.50;99.90
6252;DHT22;3159;52.414;9.784;2023-01-19T08:15:37;2.50;99.90
6252;DHT22;3159;52.414;9.784;2023-01-19T08:18:05;2.60;99.90
6252;DHT22;3159;52.414;9.784;2023-01-19T08:20:34;2.60;99.90
6252;DHT22;3159;52.414;9.784;2023-01-19T08:23:01;2.60;99.90
6252;DHT22;3159;52.414;9.784;2023-01-19T08:25:31;2.60;99.90
6252;DHT22;3159;52.414;9.784;2023-01-19T08:27:58;2.60;99.90
6252;DHT22;3159;52.414;9.784;2023-01-19T08:30:25;2.60;99.90
6252;DHT22;3159;52.414;9.784;2023-01-19T08:32:52;2.70;99.90
6252;DHT22;3159;52.414;9.784;2023-01-19T08:35:23;2.70;99.90
6252;DHT22;3159;52.414;9.784;2023-01-19T08:37:50;2.70;99.90
6252;DHT22;3159;52.414;9.784;2023-01-19T08:40:17;2.70;99.90
6252;DHT22;3159;52.414;9.784;2023-01-19T08:42:44;2.70;99.90
6252;DHT22;3159;52.414;9.784;2023-01-19T08:45:11;2.80;99.90
6252;DHT22;3159;52.414;9.784;2023-01-19T08:47:38;2.70;99.90
6252;DHT22;3159;52.414;9.784;2023-01-19T08:50:05;2.80;99.90
6252;DHT22;3159;52.414;9.784;2023-01-19T08:52:34;2.80;99.90
6252;DHT22;3159;52.414;9.784;2023-01-19T08:55:01;2.80;99.90
6252;DHT22;3159;52.414;9.784;2023-01-19T08:57:27;2.90;99.90
6252;DHT22;3159;52.414;9.784;2023-01-19T08:59:54;2.70;99.90
6252;DHT22;3159;52.414;9.784;2023-01-19T09:02:21;2.80;99.90
6252;DHT22;3159;52.414;9.784;2023-01-19T09:04:48;2.70;99.90
6252;DHT22;3159;52.414;9.784;2023-01-19T09:07:14;2.70;99.90
6252;DHT22;3159;52.414;9.784;2023-01-19T09:09:43;2.80;99.90
6252;DHT22;3159;52.414;9.784;2023-01-19T09:12:10;2.80;99.90
6252;DHT22;3159;52.414;9.784;2023-01-19T09:14:36;2.70;99.90
6252;DHT22;3159;52.414;9.784;2023-01-19T09:17:03;2.80;99.90
6252;DHT22;3159;52.414;9.784;2023-01-19T09:19:30;2.80;99.90
6252;DHT22;3159;52.414;9.784;2023-01-19T09:21:57;2.70;99.90
6252;DHT22;3159;52.414;9.784;2023-01-19T09:24:24;2.60;99.90
6252;DHT22;3159;52.414;9.784;2023-01-19T09:26:53;2.60;99.90
6252;DHT22;3159;52.414;9.784;2023-01-19T09:29:19;2.50;99.90
6252;DHT22;3159;52.414;9.784;2023-01-19T09:31:47;2.50;99.90
6252;DHT22;3159;52.414;9.784;2023-01-19T09:34:14;2.60;99.90
6252;DHT22;3159;52.414;9.784;2023-01-19T09:36:41;2.40;99.90
6252;DHT22;3159;52.414;9.784;2023-01-19T09:39:08;2.50;99.90
6252;DHT22;3159;52.414;9.784;2023-01-19T09:41:36;2.50;99.90
6252;DHT22;3159;52.414;9.784;2023-01-19T09:44:06;2.50;99.90
6252;DHT22;3159;52.414;9.784;2023-01-19T09:46:39;2.60;99.90
6252;DHT22;3159;52.414;9.784;2023-01-19T09:49:12;2.50;99.90
6252;DHT22;3159;52.414;9.784;2023-01-19T09:51:42;2.50;99.90
6252;DHT22;3159;52.414;9.784;2023-01-19T09:54:12;2.50;99.90
6252;DHT22;3159;52.414;9.784;2023-01-19T09:56:41;2.60;99.90
6252;DHT22;3159;52.414;9.784;2023-01-19T09:59:18;2.50;99.90
6252;DHT22;3159;52.414;9.784;2023-01-19T10:04:38;2.30;99.90
6252;DHT22;3159;52.414;9.784;2023-01-19T10:07:09;2.40;99.90
6252;DHT22;3159;52.414;9.784;2023-01-19T10:09:51;2.50;99.90
6252;DHT22;3159;52.414;9.784;2023-01-19T10:12:30;2.60;99.90
6252;DHT22;3159;52.414;9.784;2023-01-19T10:15:04;2.60;99.90
6252;DHT22;3159;52.414;9.784;2023-01-19T10:17:41;2.50;99.90
6252;DHT22;3159;52.414;9.784;2023-01-19T10:20:18;2.50;99.90
6252;DHT22;3159;52.414;9.784;2023-01-19T10:22:48;2.50;99.90
6252;DHT22;3159;52.414;9.784;2023-01-19T10:25:18;2.50;99.90
6252;DHT22;3159;52.414;9.784;2023-01-19T10:27:48;2.50;99.90
6252;DHT22;3159;52.414;9.784;2023-01-19T10:30:18;2.60;99.90
6252;DHT22;3159;52.414;9.784;2023-01-19T10:32:48;2.60;99.90
6252;DHT22;3159;52.414;9.784;2023-01-19T10:35:17;2.50;99.90
6252;DHT22;3159;52.414;9.784;2023-01-19T10:37:49;2.60;99.90
6252;DHT22;3159;52.414;9.784;2023-01-19T10:40:21;2.60;99.90
6252;DHT22;3159;52.414;9.784;2023-01-19T10:42:50;2.70;99.90
6252;DHT22;3159;52.414;9.784;2023-01-19T10:45:20;2.60;99.90
6252;DHT22;3159;52.414;9.784;2023-01-19T10:47:49;2.80;99.90
6252;DHT22;3159;52.414;9.784;2023-01-19T10:50:28;2.80;99.90
6252;DHT22;3159;52.414;9.784;2023-01-19T10:52:56;2.70;99.90
6252;DHT22;3159;52.414;9.784;2023-01-19T10:55:26;2.80;99.90
6252;DHT22;3159;52.414;9.784;2023-01-19T10:57:53;2.80;99.90
6252;DHT22;3159;52.414;9.784;2023-01-19T11:00:33;2.90;99.90
6252;DHT22;3159;52.414;9.784;2023-01-19T11:03:02;2.90;99.90
6252;DHT22;3159;52.414;9.784;2023-01-19T11:05:31;2.80;99.90
6252;DHT22;3159;52.414;9.784;2023-01-19T11:07:58;2.80;99.90
6252;DHT22;3159;52.414;9.784;2023-01-19T11:10:26;2.80;99.90
6252;DHT22;3159;52.414;9.784;2023-01-19T11:12:59;2.90;99.90
6252;DHT22;3159;52.414;9.784;2023-01-19T11:15:31;2.90;99.90
6252;DHT22;3159;52.414;9.784;2023-01-19T11:18:00;2.90;99.90
6252;DHT22;3159;52.414;9.784;2023-01-19T11:20:28;3.00;99.90
6252;DHT22;3159;52.414;9.784;2023-01-19T11:23:07;3.10;99.90
6252;DHT22;3159;52.414;9.784;2023-01-19T11:25:45;3.20;99.90
6252;DHT22;3159;52.414;9.784;2023-01-19T11:28:16;3.10;99.90
6252;DHT22;3159;52.414;9.784;2023-01-19T11:30:55;3.10;99.90
6252;DHT22;3159;52.414;9.784;2023-01-19T11:33:23;3.10;99.90
6252;DHT22;3159;52.414;9.784;2023-01-19T11:36:01;3.20;99.90
6252;DHT22;3159;52.414;9.784;2023-01-19T11:38:28;3.30;99.90
6252;DHT22;3159;52.414;9.784;2023-01-19T11:40:56;3.40;99.90
6252;DHT22;3159;52.414;9.784;2023-01-19T11:43:27;3.30;99.90
6252;DHT22;3159;52.414;9.784;2023-01-19T11:45:56;3.30;99.90
6252;DHT22;3159;52.414;9.784;2023-01-19T11:48:28;3.20;99.90
6252;DHT22;3159;52.414;9.784;2023-01-19T11:50:59;3.30;99.90
6252;DHT22;3159;52.414;9.784;2023-01-19T11:53:31;3.30;99.90
6252;DHT22;3159;52.414;9.784;2023-01-19T11:56:02;3.30;99.90
6252;DHT22;3159;52.414;9.784;2023-01-19T11:58:30;3.20;99.90
6252;DHT22;3159;52.414;9.784;2023-01-19T12:01:02;3.20;99.90
6252;DHT22;3159;52.414;9.784;2023-01-19T12:03:35;3.20;99.90
6252;DHT22;3159;52.414;9.784;2023-01-19T12:06:05;3.10;99.90
6252;DHT22;3159;52.414;9.784;2023-01-19T12:08:36;3.10;99.90
6252;DHT22;3159;52.414;9.784;2023-01-19T12:11:09;3.00;99.90
6252;DHT22;3159;52.414;9.784;2023-01-19T12:13:37;3.00;99.90
6252;DHT22;3159;52.414;9.784;2023-01-19T12:16:09;2.90;99.90
6252;DHT22;3159;52.414;9.784;2023-01-19T12:18:41;2.90;99.90
6252;DHT22;3159;52.414;9.784;2023-01-19T12:21:09;2.90;99.90
6252;DHT22;3159;52.414;9.784;2023-01-19T12:24:00;2.90;99.90
6252;DHT22;3159;52.414;9.784;2023-01-19T12:26:34;2.70;99.90
6252;DHT22;3159;52.414;9.784;2023-01-19T12:29:05;2.80;99.90
6252;DHT22;3159;52.414;9.784;2023-01-19T12:31:35;2.80;99.90
6252;DHT22;3159;52.414;9.784;2023-01-19T12:34:35;3.00;99.90
6252;DHT22;3159;52.414;9.784;2023-01-19T12:37:05;2.80;99.90
6252;DHT22;3159;52.414;9.784;2023-01-19T12:39:33;2.90;99.90
6252;DHT22;3159;52.414;9.784;2023-01-19T12:42:06;2.90;99.90
6252;DHT22;3159;52.414;9.784;2023-01-19T12:44:37;2.80;99.90
6252;DHT22;3159;52.414;9.784;2023-01-19T12:47:20;3.00;99.90
6252;DHT22;3159;52.414;9.784;2023-01-19T12:49:51;2.90;99.90
6252;DHT22;3159;52.414;9.784;2023-01-19T12:52:23;3.00;99.90
6252;DHT22;3159;52.414;9.784;2023-01-19T12:55:14;2.70;99.90
6252;DHT22;3159;52.414;9.784;2023-01-19T12:57:48;2.80;99.90
6252;DHT22;3159;52.414;9.784;2023-01-19T13:00:32;2.80;99.90
6252;DHT22;3159;52.414;9.784;2023-01-19T13:03:01;2.90;99.90
6252;DHT22;3159;52.414;9.784;2023-01-19T13:05:55;2.80;99.90
6252;DHT22;3159;52.414;9.784;2023-01-19T13:08:24;2.70;99.90
6252;DHT22;3159;52.414;9.784;2023-01-19T13:11:12;2.70;99.90
6252;DHT22;3159;52.414;9.784;2023-01-19T13:13:41;2.80;99.90
6252;DHT22;3159;52.414;9.784;2023-01-19T13:19:36;2.80;99.90
6252;DHT22;3159;52.414;9.784;2023-01-19T13:25:12;2.90;99.90
6252;DHT22;3159;52.414;9.784;2023-01-19T13:27:47;2.90;99.90
6252;DHT22;3159;52.414;9.784;2023-01-19T13:30:16;2.80;99.90
6252;DHT22;3159;52.414;9.784;2023-01-19T13:32:44;2.90;99.90
6252;DHT22;3159;52.414;9.784;2023-01-19T13:35:16;3.00;99.90
6252;DHT22;3159;52.414;9.784;2023-01-19T13:37:44;3.10;99.90
6252;DHT22;3159;52.414;9.784;2023-01-19T13:40:16;3.10;99.90
6252;DHT22;3159;52.414;9.784;2023-01-19T13:42:44;3.10;99.90
6252;DHT22;3159;52.414;9.784;2023-01-19T13:45:20;3.10;99.90
6252;DHT22;3159;52.414;9.784;2023-01-19T13:47:51;3.20;99.90
6252;DHT22;3159;52.414;9.784;2023-01-19T13:50:23;3.30;99.90
6252;DHT22;3159;52.414;9.784;2023-01-19T13:52:50;3.20;99.90
6252;DHT22;3159;52.414;9.784;2023-01-19T13:55:21;3.20;99.90
6252;DHT22;3159;52.414;9.784;2023-01-19T13:57:50;3.20;99.90
6252;DHT22;3159;52.414;9.784;2023-01-19T14:00:19;3.20;99.90
6252;DHT22;3159;52.414;9.784;2023-01-19T14:02:55;3.10;99.90
6252;DHT22;3159;52.414;9.784;2023-01-19T14:05:26;3.20;99.90
6252;DHT22;3159;52.414;9.784;2023-01-19T14:08:01;3.20;99.90
6252;DHT22;3159;52.414;9.784;2023-01-19T14:10:28;3.40;99.90
6252;DHT22;3159;52.414;9.784;2023-01-19T14:13:00;3.40;99.90
6252;DHT22;3159;52.414;9.784;2023-01-19T14:15:28;3.50;99.90
6252;DHT22;3159;52.414;9.784;2023-01-19T14:18:10;3.50;99.90
6252;DHT22;3159;52.414;9.784;2023-01-19T14:20:40;3.50;99.90
6252;DHT22;3159;52.414;9.784;2023-01-19T14:23:38;3.60;99.90
6252;DHT22;3159;52.414;9.784;2023-01-19T14:28:47;3.60;99.90
6252;DHT22;3159;52.414;9.784;2023-01-19T14:31:19;3.70;99.90
6252;DHT22;3159;52.414;9.784;2023-01-19T14:33:47;3.70;99.90
6252;DHT22;3159;52.414;9.784;2023-01-19T14:36:37;3.60;99.90
6252;DHT22;3159;52.414;9.784;2023-01-19T14:39:16;3.70;99.90
6252;DHT22;3159;52.414;9.784;2023-01-19T14:41:48;3.60;99.90
6252;DHT22;3159;52.414;9.784;2023-01-19T14:44:19;3.70;99.90
6252;DHT22;3159;52.414;9.784;2023-01-19T14:46:50;3.70;99.90
6252;DHT22;3159;52.414;9.784;2023-01-19T14:49:20;3.70;99.90
6252;DHT22;3159;52.414;9.784;2023-01-19T14:51:50;3.70;99.90
6252;DHT22;3159;52.414;9.784;2023-01-19T14:54:18;3.70;99.90
6252;DHT22;3159;52.414;9.784;2023-01-19T14:56:52;3.70;99.90
6252;DHT22;3159;52.414;9.784;2023-01-19T14:59:19;3.60;99.90
6252;DHT22;3159;52.414;9.784;2023-01-19T15:01:46;3.70;99.90
6252;DHT22;3159;52.414;9.784;2023-01-19T15:04:13;3.80;99.90
6252;DHT22;3159;52.414;9.784;2023-01-19T15:06:40;3.80;99.90
6252;DHT22;3159;52.414;9.784;2023-01-19T15:09:12;3.70;99.90
6252;DHT22;3159;52.414;9.784;2023-01-19T15:11:40;3.70;99.90
6252;DHT22;3159;52.414;9.784;2023-01-19T15:14:10;3.90;99.90
6252;DHT22;3159;52.414;9.784;2023-01-19T15:16:37;3.80;99.90
6252;DHT22;3159;52.414;9.784;2023-01-19T15:19:04;3.80;99.90
6252;DHT22;3159;52.414;9.784;2023-01-19T15:21:31;3.80;99.90
6252;DHT22;3159;52.414;9.784;2023-01-19T15:23:57;3.70;99.90
6252;DHT22;3159;52.414;9.784;2023-01-19T15:26:26;3.70;99.90
6252;DHT22;3159;52.414;9.784;2023-01-19T15:28:54;3.70;99.90
6252;DHT22;3159;52.414;9.784;2023-01-19T15:31:22;3.70;99.90
6252;DHT22;3159;52.414;9.784;2023-01-19T15:33:50;3.70;99.90
6252;DHT22;3159;52.414;9.784;2023-01-19T15:36:18;3.70;99.90
6252;DHT22;3159;52.414;9.784;2023-01-19T15:38:46;3.70;99.90
6252;DHT22;3159;52.414;9.784;2023-01-19T15:41:19;3.70;99.90
6252;DHT22;3159;52.414;9.784;2023-01-19T15:43:48;3.70;99.90
6252;DHT22;3159;52.414;9.784;2023-01-19T15:46:17;3.70;99.90
6252;DHT22;3159;52.414;9.784;2023-01-19T15:48:45;3.60;99.90
6252;DHT22;3159;52.414;9.784;2023-01-19T15:51:12;3.70;99.90
6252;DHT22;3159;52.414;9.784;2023-01-19T15:53:40;3.80;99.90
6252;DHT22;3159;52.414;9.784;2023-01-19T15:56:13;3.70;99.90
6252;DHT22;3159;52.414;9.784;2023-01-19T15:58:41;3.60;99.90
6252;DHT22;3159;52.414;9.784;2023-01-19T16:01:11;3.60;99.90
6252;DHT22;3159;52.414;9.784;2023-01-19T16:03:39;3.70;99.90
6252;DHT22;3159;52.414;9.784;2023-01-19T16:06:06;3.60;99.90
6252;DHT22;3159;52.414;9.784;2023-01-19T16:08:33;3.60;99.90
6252;DHT22;3159;52.414;9.784;2023-01-19T16:11:03;3.60;99.90
6252;DHT22;3159;52.414;9.784;2023-01-19T16:13:30;3.40;99.90
6252;DHT22;3159;52.414;9.784;2023-01-19T16:16:01;3.50;99.90
6252;DHT22;3159;52.414;9.784;2023-01-19T16:18:29;3.40;99.90
6252;DHT22;3159;52.414;9.784;2023-01-19T16:20:56;3.40;99.90
6252;DHT22;3159;52.414;9.784;2023-01-19T16:23:23;3.30;99.90
6252;DHT22;3159;52.414;9.784;2023-01-19T16:25:55;3.20;99.90
6252;DHT22;3159;52.414;9.784;2023-01-19T16:28:22;3.30;99.90
6252;DHT22;3159;52.414;9.784;2023-01-19T16:30:49;3.20;99.90
6252;DHT22;3159;52.414;9.784;2023-01-19T16:33:16;3.10;99.90
6252;DHT22;3159;52.414;9.784;2023-01-19T16:35:44;3.10;99.90
6252;DHT22;3159;52.414;9.784;2023-01-19T16:38:11;3.10;99.90
6252;DHT22;3159;52.414;9.784;2023-01-19T16:40:38;3.10;99.90
6252;DHT22;3159;52.414;9.784;2023-01-19T16:43:05;3.10;99.90
6252;DHT22;3159;52.414;9.784;2023-01-19T16:45:32;3.00;99.90
6252;DHT22;3159;52.414;9.784;2023-01-19T16:47:59;3.10;99.90
6252;DHT22;3159;52.414;9.784;2023-01-19T16:50:56;3.00;99.90